createdAt,value
2019-03-23T00:01:56.340Z,2.70
2019-03-23T00:04:34.329Z,2.70
2019-03-23T00:07:13.310Z,2.70
2019-03-23T00:09:51.297Z,2.50
2019-03-23T00:12:29.649Z,2.70
2019-03-23T00:15:07.909Z,2.58
2019-03-23T00:17:46.231Z,2.30
2019-03-23T00:20:24.188Z,2.30
2019-03-23T00:22:59.408Z,2.60
2019-03-23T00:25:37.484Z,2.58
2019-03-23T00:28:15.487Z,2.50
2019-03-23T00:30:53.452Z,2.35
2019-03-23T00:33:31.442Z,2.58
2019-03-23T00:36:09.534Z,2.37
2019-03-23T00:38:47.614Z,2.40
2019-03-23T00:41:22.985Z,2.20
2019-03-23T00:44:00.931Z,2.22
2019-03-23T00:46:38.902Z,2.40
2019-03-23T00:49:16.837Z,2.20
2019-03-23T00:51:52.098Z,2.30
2019-03-23T00:54:27.262Z,2.30
2019-03-23T00:57:06.463Z,2.22
2019-03-23T00:59:44.507Z,2.42
2019-03-23T01:02:22.523Z,2.60
2019-03-23T01:05:00.497Z,2.45
2019-03-23T01:07:38.469Z,2.30
2019-03-23T01:10:18.337Z,2.50
2019-03-23T01:12:56.951Z,2.60
2019-03-23T01:15:35.043Z,2.40
2019-03-23T01:18:10.264Z,2.70
2019-03-23T01:20:49.864Z,2.40
2019-03-23T01:23:27.465Z,2.30
2019-03-23T01:26:05.648Z,2.52
2019-03-23T01:28:43.554Z,2.33
2019-03-23T01:31:18.848Z,2.50
2019-03-23T01:33:56.814Z,2.40
2019-03-23T01:36:37.629Z,2.30
2019-03-23T01:39:15.870Z,2.05
2019-03-23T01:41:54.033Z,2.27
2019-03-23T01:44:32.102Z,2.20
2019-03-23T01:47:11.125Z,2.50
2019-03-23T01:49:49.181Z,2.20
2019-03-23T01:52:27.382Z,2.25
2019-03-23T01:55:05.392Z,2.20
2019-03-23T01:57:43.459Z,2.05
2019-03-23T02:00:21.628Z,2.02
2019-03-23T02:02:59.672Z,2.00
2019-03-23T02:05:39.422Z,2.10
2019-03-23T02:08:17.437Z,2.40
2019-03-23T02:10:55.487Z,2.40
2019-03-23T02:13:33.534Z,2.77
2019-03-23T02:16:11.716Z,2.80
2019-03-23T02:18:51.598Z,2.87
2019-03-23T02:21:29.141Z,2.40
2019-03-23T02:24:05.553Z,2.75
2019-03-23T02:26:43.413Z,2.70
2019-03-23T02:29:22.883Z,2.60
2019-03-23T02:31:58.133Z,2.90
2019-03-23T02:34:33.207Z,2.62
2019-03-23T02:37:26.850Z,2.42
2019-03-23T02:39:53.590Z,2.92
2019-03-23T02:42:31.559Z,2.40
2019-03-23T02:45:09.798Z,2.92
2019-03-23T02:47:47.717Z,2.90
2019-03-23T02:50:25.729Z,2.65
2019-03-23T02:53:03.850Z,2.70
2019-03-23T02:55:41.917Z,2.50
2019-03-23T02:58:17.162Z,2.77
2019-03-23T03:00:52.508Z,3.83
2019-03-23T03:03:30.341Z,2.62
2019-03-23T03:06:08.507Z,2.60
2019-03-23T03:08:46.524Z,2.30
2019-03-23T03:11:22.199Z,3.20
2019-03-23T03:14:00.068Z,4.70
2019-03-23T03:16:38.180Z,3.30
2019-03-23T03:19:16.201Z,3.22
2019-03-23T03:21:51.506Z,3.30
2019-03-23T03:24:29.434Z,2.80
2019-03-23T03:27:11.680Z,2.62
2019-03-23T03:29:49.726Z,2.85
2019-03-23T03:32:29.940Z,3.00
2019-03-23T03:35:08.138Z,2.80
2019-03-23T03:37:56.583Z,2.60
2019-03-23T03:40:22.528Z,3.40
2019-03-23T03:43:00.556Z,2.83
2019-03-23T03:45:35.736Z,2.65
2019-03-23T03:48:10.911Z,2.65
2019-03-23T03:50:48.790Z,5.15
2019-03-23T03:53:26.931Z,4.85
2019-03-23T03:56:05.011Z,2.50
2019-03-23T03:58:43.275Z,8.48
2019-03-23T04:01:21.615Z,5.47
2019-03-23T04:03:59.695Z,3.60
2019-03-23T04:06:37.958Z,4.72
2019-03-23T04:09:15.957Z,3.65
2019-03-23T04:11:54.012Z,4.17
2019-03-23T04:14:32.111Z,2.60
2019-03-23T04:17:13.932Z,3.35
2019-03-23T04:19:51.837Z,3.37
2019-03-23T04:22:29.865Z,2.60
2019-03-23T04:25:07.976Z,2.60
2019-03-23T04:27:45.913Z,2.62
2019-03-23T04:30:24.072Z,3.12
2019-03-23T04:33:02.011Z,3.90
2019-03-23T04:35:40.055Z,2.95
2019-03-23T04:38:22.477Z,2.60
2019-03-23T04:40:54.433Z,4.10
2019-03-23T04:43:32.309Z,4.15
2019-03-23T04:46:07.540Z,3.00
2019-03-23T04:48:45.439Z,3.47
2019-03-23T04:51:23.440Z,3.77
2019-03-23T04:53:58.629Z,3.87
2019-03-23T04:56:36.685Z,3.50
2019-03-23T04:59:11.896Z,2.72
2019-03-23T05:01:49.966Z,2.75
2019-03-23T05:04:27.987Z,5.67
2019-03-23T05:07:04.119Z,3.27
2019-03-23T05:09:42.066Z,7.70
2019-03-23T05:12:20.643Z,2.98
2019-03-23T05:14:58.804Z,2.40
2019-03-23T05:17:36.851Z,3.15
2019-03-23T05:20:16.158Z,2.95
2019-03-23T05:22:56.206Z,3.95
2019-03-23T05:25:31.693Z,3.58
2019-03-23T05:28:09.636Z,5.35
2019-03-23T05:30:47.630Z,3.08
2019-03-23T05:33:25.655Z,9.60
2019-03-23T05:36:03.646Z,4.90
2019-03-23T05:38:44.532Z,2.72
2019-03-23T05:41:18.220Z,2.55
2019-03-23T05:43:56.125Z,3.40
2019-03-23T05:46:34.115Z,3.25
2019-03-23T05:49:12.109Z,8.08
2019-03-23T05:51:50.116Z,2.95
2019-03-23T05:54:28.188Z,4.90
2019-03-23T05:57:07.224Z,8.40
2019-03-23T05:59:45.400Z,5.78
2019-03-23T06:02:23.400Z,5.22
2019-03-23T06:05:01.465Z,3.20
2019-03-23T06:07:36.684Z,4.28
2019-03-23T06:10:15.244Z,2.98
2019-03-23T06:12:53.870Z,2.58
2019-03-23T06:15:31.867Z,3.67
2019-03-23T06:18:09.848Z,2.95
2019-03-23T06:20:47.842Z,3.15
2019-03-23T06:23:26.007Z,3.10
2019-03-23T06:26:06.362Z,3.00
2019-03-23T06:28:43.141Z,2.90
2019-03-23T06:31:21.085Z,4.10
2019-03-23T06:33:59.102Z,5.20
2019-03-23T06:36:37.129Z,5.45
2019-03-23T06:39:15.613Z,5.60
2019-03-23T06:41:53.663Z,5.20
2019-03-23T06:44:31.591Z,3.47
2019-03-23T06:47:12.130Z,4.70
2019-03-23T06:49:50.360Z,7.30
2019-03-23T06:52:28.402Z,3.25
2019-03-23T06:55:06.376Z,5.35
2019-03-23T06:57:44.594Z,5.17
2019-03-23T07:00:22.720Z,3.58
2019-03-23T07:03:00.927Z,2.90
2019-03-23T07:05:39.867Z,4.90
2019-03-23T07:08:19.614Z,3.12
2019-03-23T07:10:59.706Z,3.85
2019-03-23T07:13:37.579Z,3.35
2019-03-23T07:16:15.745Z,3.47
2019-03-23T07:18:55.037Z,5.20
2019-03-23T18:04:31.151Z,2.70
2019-03-23T18:07:11.525Z,3.20
2019-03-23T18:09:49.567Z,3.20
2019-03-23T18:12:27.541Z,3.20
2019-03-23T18:15:06.211Z,3.00
2019-03-23T18:17:44.156Z,3.22
2019-03-23T18:20:22.636Z,3.08
2019-03-23T18:23:00.603Z,3.22
2019-03-23T18:25:38.506Z,3.47
2019-03-23T18:28:16.485Z,3.50
2019-03-23T18:30:54.556Z,3.60
2019-03-23T18:33:32.530Z,3.40
2019-03-23T18:36:10.496Z,3.60
2019-03-23T18:38:48.522Z,3.52
2019-03-23T18:41:23.694Z,3.87
2019-03-23T18:44:01.583Z,3.60
2019-03-23T18:46:41.080Z,3.55
2019-03-23T18:49:19.029Z,3.70
2019-03-23T18:51:57.291Z,3.80
2019-03-23T18:54:35.309Z,3.55
2019-03-23T18:57:13.372Z,3.70
2019-03-23T18:59:51.376Z,3.70
2019-03-23T19:02:30.757Z,3.80
2019-03-23T19:05:09.138Z,4.00
2019-03-23T19:07:47.399Z,4.00
2019-03-23T19:10:25.395Z,4.10
2019-03-23T19:13:05.996Z,3.60
2019-03-23T19:15:44.013Z,3.80
2019-03-23T19:18:22.007Z,3.47
2019-03-23T19:20:59.915Z,3.50
2019-03-23T19:23:38.232Z,3.70
2019-03-23T19:26:16.174Z,4.42
2019-03-23T19:28:54.325Z,4.08
2019-03-23T19:31:32.556Z,3.90
2019-03-23T19:34:10.646Z,4.03
2019-03-23T19:36:48.598Z,4.80
2019-03-23T19:39:26.556Z,4.00
2019-03-23T19:42:04.479Z,4.30
2019-03-23T19:44:42.453Z,4.33
2019-03-23T19:47:17.627Z,4.20
2019-03-23T19:49:55.429Z,3.90
2019-03-23T19:52:33.634Z,4.35
2019-03-23T19:55:12.202Z,4.45
2019-03-23T19:57:52.739Z,4.42
2019-03-23T20:00:29.691Z,4.33
2019-03-23T20:03:07.707Z,4.10
2019-03-23T20:05:45.843Z,4.35
2019-03-23T20:08:25.622Z,4.35
2019-03-23T20:11:03.302Z,3.98
2019-03-23T20:13:41.781Z,4.33
2019-03-23T20:16:19.996Z,4.00
2019-03-23T20:18:57.943Z,4.20
2019-03-23T20:21:35.967Z,4.12
2019-03-23T20:24:14.073Z,4.15
2019-03-23T20:26:51.974Z,4.12
2019-03-23T20:29:30.605Z,4.17
2019-03-23T20:32:08.782Z,4.00
2019-03-23T20:34:46.738Z,4.05
2019-03-23T20:37:24.759Z,3.83
2019-03-23T20:40:02.709Z,4.35
2019-03-23T20:42:40.674Z,4.47
2019-03-23T20:45:19.846Z,4.58
2019-03-23T20:47:58.093Z,4.62
2019-03-23T20:50:36.168Z,4.75
2019-03-23T20:53:15.507Z,4.87
2019-03-23T20:55:53.568Z,4.90
2019-03-23T20:58:31.542Z,5.10
2019-03-23T21:01:09.721Z,5.25
2019-03-23T21:03:47.708Z,6.20
2019-03-23T21:06:25.615Z,6.20
2019-03-23T21:09:03.608Z,6.03
2019-03-23T21:11:41.619Z,6.22
2019-03-23T21:14:21.827Z,6.37
2019-03-23T21:16:59.786Z,6.08
2019-03-23T21:19:37.692Z,6.53
2019-03-23T21:22:15.687Z,7.28
2019-03-23T21:24:54.050Z,7.33
2019-03-23T21:27:31.987Z,8.05
2019-03-23T21:30:11.240Z,8.10
2019-03-23T21:32:49.220Z,8.63
2019-03-23T21:35:28.424Z,8.50
2019-03-23T21:38:03.663Z,9.10
2019-03-23T21:40:38.751Z,10.00
2019-03-23T21:43:16.595Z,8.28
2019-03-23T21:45:54.640Z,9.15
2019-03-23T21:48:32.709Z,9.45
2019-03-23T21:51:10.779Z,8.95
2019-03-23T21:53:45.995Z,8.90
2019-03-23T21:56:23.846Z,8.93
2019-03-23T21:59:02.978Z,9.95
2019-03-23T22:01:41.096Z,9.13
2019-03-23T22:04:19.460Z,8.50
2019-03-23T22:06:54.647Z,8.28
2019-03-23T22:09:35.792Z,7.87
2019-03-23T22:12:13.759Z,7.75
2019-03-23T22:14:51.727Z,7.12
2019-03-23T22:17:30.141Z,6.80
2019-03-23T22:20:08.726Z,6.90
2019-03-23T22:22:48.903Z,6.60
2019-03-23T22:25:25.323Z,6.10
2019-03-23T22:28:04.378Z,5.70
2019-03-23T22:30:42.784Z,5.90
2019-03-23T22:33:20.805Z,5.87
2019-03-23T22:35:58.938Z,5.83
2019-03-23T22:38:36.976Z,5.78
2019-03-23T22:41:12.249Z,5.40
2019-03-23T22:43:50.398Z,5.35
2019-03-23T22:46:28.543Z,5.50
2019-03-23T22:49:06.765Z,5.20
2019-03-23T22:51:44.975Z,5.70
2019-03-23T22:54:23.023Z,5.50
2019-03-23T22:57:00.957Z,5.37
2019-03-23T22:59:38.954Z,5.50
2019-03-23T23:02:17.593Z,5.30
2019-03-23T23:04:55.898Z,5.12
2019-03-23T23:07:33.945Z,4.97
2019-03-23T23:10:12.249Z,5.10
2019-03-23T23:12:50.497Z,4.92
2019-03-23T23:15:29.594Z,4.85
2019-03-23T23:18:07.521Z,4.50
2019-03-23T23:20:45.563Z,4.30
2019-03-23T23:23:24.226Z,4.50
2019-03-23T23:26:02.656Z,4.80
2019-03-23T23:28:40.639Z,4.70
2019-03-23T23:31:19.807Z,4.53
2019-03-23T23:33:57.840Z,4.30
2019-03-23T23:36:36.311Z,4.50
2019-03-23T23:39:15.331Z,4.30
2019-03-23T23:41:53.365Z,4.37
2019-03-23T23:44:31.922Z,4.17
2019-03-23T23:47:10.375Z,4.30
2019-03-23T23:49:49.736Z,4.60
2019-03-23T23:52:27.694Z,4.47
2019-03-23T23:55:02.870Z,4.15
2019-03-23T23:57:40.691Z,4.25
